sensor_id;sensor_type;location;lat;lon;timestamp;P1;durP1;ratioP1;P2;durP2;ratioP2
9222;SDS011;7557;51.698;3.942;2023-01-04T00:01:53;5.80;;;4.57;;
9222;SDS011;7557;51.698;3.942;2023-01-04T00:04:20;6.97;;;3.70;;
9222;SDS011;7557;51.698;3.942;2023-01-04T00:06:47;11.80;;;4.57;;
9222;SDS011;7557;51.698;3.942;2023-01-04T00:09:15;5.40;;;4.53;;
9222;SDS011;7557;51.698;3.942;2023-01-04T00:11:42;5.37;;;3.93;;
9222;SDS011;7557;51.698;3.942;2023-01-04T00:14:09;6.07;;;3.70;;
9222;SDS011;7557;51.698;3.942;2023-01-04T00:16:38;3.77;;;3.53;;
9222;SDS011;7557;51.698;3.942;2023-01-04T00:19:05;3.83;;;3.27;;
9222;SDS011;7557;51.698;3.942;2023-01-04T00:21:32;8.83;;;4.17;;
9222;SDS011;7557;51.698;3.942;2023-01-04T00:23:59;5.40;;;3.77;;
9222;SDS011;7557;51.698;3.942;2023-01-04T00:26:28;4.30;;;3.90;;
9222;SDS011;7557;51.698;3.942;2023-01-04T00:28:56;5.83;;;4.20;;
9222;SDS011;7557;51.698;3.942;2023-01-04T00:31:25;3.97;;;3.23;;
9222;SDS011;7557;51.698;3.942;2023-01-04T00:33:54;3.50;;;3.20;;
9222;SDS011;7557;51.698;3.942;2023-01-04T00:36:23;3.90;;;3.60;;
9222;SDS011;7557;51.698;3.942;2023-01-04T00:38:51;5.60;;;3.10;;
9222;SDS011;7557;51.698;3.942;2023-01-04T00:41:32;3.03;;;2.80;;
9222;SDS011;7557;51.698;3.942;2023-01-04T00:44:01;3.20;;;3.00;;
9222;SDS011;7557;51.698;3.942;2023-01-04T00:46:28;3.40;;;3.07;;
9222;SDS011;7557;51.698;3.942;2023-01-04T00:48:57;3.47;;;3.27;;
9222;SDS011;7557;51.698;3.942;2023-01-04T00:54:46;3.37;;;3.03;;
9222;SDS011;7557;51.698;3.942;2023-01-04T00:57:13;4.70;;;4.07;;
9222;SDS011;7557;51.698;3.942;2023-01-04T00:59:40;5.93;;;3.27;;
9222;SDS011;7557;51.698;3.942;2023-01-04T01:02:07;4.17;;;3.50;;
9222;SDS011;7557;51.698;3.942;2023-01-04T01:04:35;6.73;;;3.57;;
9222;SDS011;7557;51.698;3.942;2023-01-04T01:07:03;5.63;;;3.00;;
9222;SDS011;7557;51.698;3.942;2023-01-04T01:09:30;5.67;;;2.77;;
9222;SDS011;7557;51.698;3.942;2023-01-04T01:11:57;6.93;;;3.43;;
9222;SDS011;7557;51.698;3.942;2023-01-04T01:14:24;3.63;;;3.37;;
9222;SDS011;7557;51.698;3.942;2023-01-04T01:16:51;4.20;;;3.10;;
9222;SDS011;7557;51.698;3.942;2023-01-04T01:19:19;3.40;;;3.07;;
9222;SDS011;7557;51.698;3.942;2023-01-04T01:21:47;4.30;;;3.27;;
9222;SDS011;7557;51.698;3.942;2023-01-04T01:24:15;4.77;;;2.80;;
9222;SDS011;7557;51.698;3.942;2023-01-04T01:26:43;4.57;;;2.93;;
9222;SDS011;7557;51.698;3.942;2023-01-04T01:29:10;5.53;;;3.57;;
9222;SDS011;7557;51.698;3.942;2023-01-04T01:31:37;3.97;;;2.43;;
9222;SDS011;7557;51.698;3.942;2023-01-04T01:34:06;2.70;;;2.60;;
9222;SDS011;7557;51.698;3.942;2023-01-04T01:36:33;2.70;;;2.50;;
9222;SDS011;7557;51.698;3.942;2023-01-04T01:39:03;4.60;;;2.97;;
9222;SDS011;7557;51.698;3.942;2023-01-04T01:41:31;3.17;;;2.87;;
9222;SDS011;7557;51.698;3.942;2023-01-04T01:44:00;4.23;;;3.10;;
9222;SDS011;7557;51.698;3.942;2023-01-04T01:46:29;3.33;;;3.10;;
9222;SDS011;7557;51.698;3.942;2023-01-04T01:49:02;3.37;;;2.90;;
9222;SDS011;7557;51.698;3.942;2023-01-04T01:51:31;5.50;;;2.83;;
9222;SDS011;7557;51.698;3.942;2023-01-04T01:54:00;4.63;;;2.40;;
9222;SDS011;7557;51.698;3.942;2023-01-04T01:56:34;6.00;;;2.70;;
9222;SDS011;7557;51.698;3.942;2023-01-04T01:59:03;3.00;;;2.80;;
9222;SDS011;7557;51.698;3.942;2023-01-04T02:01:31;3.43;;;3.03;;
9222;SDS011;7557;51.698;3.942;2023-01-04T02:03:59;3.13;;;2.93;;
9222;SDS011;7557;51.698;3.942;2023-01-04T02:06:28;3.77;;;3.17;;
9222;SDS011;7557;51.698;3.942;2023-01-04T02:08:59;3.23;;;3.03;;
9222;SDS011;7557;51.698;3.942;2023-01-04T02:11:29;3.57;;;3.10;;
9222;SDS011;7557;51.698;3.942;2023-01-04T02:13:57;4.00;;;3.50;;
9222;SDS011;7557;51.698;3.942;2023-01-04T02:16:55;3.90;;;3.50;;
9222;SDS011;7557;51.698;3.942;2023-01-04T02:19:35;3.93;;;3.07;;
9222;SDS011;7557;51.698;3.942;2023-01-04T02:22:20;4.33;;;3.30;;
9222;SDS011;7557;51.698;3.942;2023-01-04T02:25:30;4.30;;;3.90;;
9222;SDS011;7557;51.698;3.942;2023-01-04T02:28:21;3.53;;;3.33;;
9222;SDS011;7557;51.698;3.942;2023-01-04T02:31:10;3.87;;;3.57;;
9222;SDS011;7557;51.698;3.942;2023-01-04T02:33:50;3.53;;;3.43;;
9222;SDS011;7557;51.698;3.942;2023-01-04T02:36:23;3.10;;;2.90;;
9222;SDS011;7557;51.698;3.942;2023-01-04T02:39:01;3.60;;;3.40;;
9222;SDS011;7557;51.698;3.942;2023-01-04T02:41:36;4.20;;;3.77;;
9222;SDS011;7557;51.698;3.942;2023-01-04T02:44:10;4.63;;;3.70;;
9222;SDS011;7557;51.698;3.942;2023-01-04T02:47:00;3.00;;;2.90;;
9222;SDS011;7557;51.698;3.942;2023-01-04T02:49:31;3.60;;;3.30;;
9222;SDS011;7557;51.698;3.942;2023-01-04T02:52:15;4.63;;;3.33;;
9222;SDS011;7557;51.698;3.942;2023-01-04T02:54:43;3.03;;;2.93;;
9222;SDS011;7557;51.698;3.942;2023-01-04T02:57:16;4.63;;;4.23;;
9222;SDS011;7557;51.698;3.942;2023-01-04T03:02:55;3.37;;;3.20;;
9222;SDS011;7557;51.698;3.942;2023-01-04T03:05:49;3.77;;;3.57;;
9222;SDS011;7557;51.698;3.942;2023-01-04T03:08:42;3.27;;;2.83;;
9222;SDS011;7557;51.698;3.942;2023-01-04T03:11:17;3.20;;;3.00;;
9222;SDS011;7557;51.698;3.942;2023-01-04T03:14:03;3.60;;;3.27;;
9222;SDS011;7557;51.698;3.942;2023-01-04T03:16:35;3.20;;;3.00;;
9222;SDS011;7557;51.698;3.942;2023-01-04T03:19:05;4.07;;;3.87;;
9222;SDS011;7557;51.698;3.942;2023-01-04T03:21:35;3.80;;;3.50;;
9222;SDS011;7557;51.698;3.942;2023-01-04T03:24:06;3.23;;;3.00;;
9222;SDS011;7557;51.698;3.942;2023-01-04T03:26:54;6.00;;;3.70;;
9222;SDS011;7557;51.698;3.942;2023-01-04T03:29:49;2.93;;;2.83;;
9222;SDS011;7557;51.698;3.942;2023-01-04T03:32:43;3.40;;;3.20;;
9222;SDS011;7557;51.698;3.942;2023-01-04T03:35:34;4.07;;;3.77;;
9222;SDS011;7557;51.698;3.942;2023-01-04T03:38:09;3.60;;;3.40;;
9222;SDS011;7557;51.698;3.942;2023-01-04T03:40:55;3.63;;;3.40;;
9222;SDS011;7557;51.698;3.942;2023-01-04T03:43:44;3.97;;;3.57;;
9222;SDS011;7557;51.698;3.942;2023-01-04T03:46:37;3.77;;;3.47;;
9222;SDS011;7557;51.698;3.942;2023-01-04T03:49:30;4.03;;;3.07;;
9222;SDS011;7557;51.698;3.942;2023-01-04T03:52:05;4.13;;;3.80;;
9222;SDS011;7557;51.698;3.942;2023-01-04T03:54:36;3.60;;;3.07;;
9222;SDS011;7557;51.698;3.942;2023-01-04T03:57:05;3.47;;;3.27;;
9222;SDS011;7557;51.698;3.942;2023-01-04T03:59:35;4.13;;;3.20;;
9222;SDS011;7557;51.698;3.942;2023-01-04T04:02:04;3.10;;;2.90;;
9222;SDS011;7557;51.698;3.942;2023-01-04T04:04:37;5.63;;;3.30;;
9222;SDS011;7557;51.698;3.942;2023-01-04T04:07:23;5.10;;;3.37;;
9222;SDS011;7557;51.698;3.942;2023-01-04T04:10:08;3.70;;;3.40;;
9222;SDS011;7557;51.698;3.942;2023-01-04T04:12:35;3.73;;;3.13;;
9222;SDS011;7557;51.698;3.942;2023-01-04T04:15:02;3.80;;;2.90;;
9222;SDS011;7557;51.698;3.942;2023-01-04T04:17:30;5.93;;;3.57;;
9222;SDS011;7557;51.698;3.942;2023-01-04T04:19:57;3.73;;;3.43;;
9222;SDS011;7557;51.698;3.942;2023-01-04T04:22:25;4.47;;;4.07;;
9222;SDS011;7557;51.698;3.942;2023-01-04T04:24:52;4.47;;;4.07;;
9222;SDS011;7557;51.698;3.942;2023-01-04T04:27:20;4.03;;;3.50;;
9222;SDS011;7557;51.698;3.942;2023-01-04T04:29:47;4.37;;;4.07;;
9222;SDS011;7557;51.698;3.942;2023-01-04T04:32:14;4.10;;;3.83;;
9222;SDS011;7557;51.698;3.942;2023-01-04T04:34:41;4.10;;;3.80;;
9222;SDS011;7557;51.698;3.942;2023-01-04T04:37:08;4.23;;;3.83;;
9222;SDS011;7557;51.698;3.942;2023-01-04T04:39:36;5.87;;;3.87;;
9222;SDS011;7557;51.698;3.942;2023-01-04T04:42:04;4.40;;;4.00;;
9222;SDS011;7557;51.698;3.942;2023-01-04T04:44:30;4.57;;;4.20;;
9222;SDS011;7557;51.698;3.942;2023-01-04T04:46:59;4.67;;;4.23;;
9222;SDS011;7557;51.698;3.942;2023-01-04T04:49:26;5.00;;;4.60;;
9222;SDS011;7557;51.698;3.942;2023-01-04T04:51:56;5.87;;;4.30;;
9222;SDS011;7557;51.698;3.942;2023-01-04T04:54:23;5.60;;;5.10;;
9222;SDS011;7557;51.698;3.942;2023-01-04T04:56:52;3.70;;;3.40;;
9222;SDS011;7557;51.698;3.942;2023-01-04T04:59:19;3.43;;;3.10;;
9222;SDS011;7557;51.698;3.942;2023-01-04T05:01:46;3.60;;;3.30;;
9222;SDS011;7557;51.698;3.942;2023-01-04T05:04:13;4.13;;;3.70;;
9222;SDS011;7557;51.698;3.942;2023-01-04T05:06:43;4.10;;;3.77;;
9222;SDS011;7557;51.698;3.942;2023-01-04T05:09:11;4.83;;;3.33;;
9222;SDS011;7557;51.698;3.942;2023-01-04T05:11:38;3.57;;;3.37;;
9222;SDS011;7557;51.698;3.942;2023-01-04T05:14:25;3.40;;;3.10;;
9222;SDS011;7557;51.698;3.942;2023-01-04T05:16:52;5.67;;;3.40;;
9222;SDS011;7557;51.698;3.942;2023-01-04T05:19:19;3.77;;;3.47;;
9222;SDS011;7557;51.698;3.942;2023-01-04T05:21:46;3.90;;;3.60;;
9222;SDS011;7557;51.698;3.942;2023-01-04T05:24:13;2.97;;;2.83;;
9222;SDS011;7557;51.698;3.942;2023-01-04T05:26:41;3.60;;;3.40;;
9222;SDS011;7557;51.698;3.942;2023-01-04T05:29:08;4.40;;;3.43;;
9222;SDS011;7557;51.698;3.942;2023-01-04T05:31:56;3.93;;;2.90;;
9222;SDS011;7557;51.698;3.942;2023-01-04T05:34:22;3.33;;;3.10;;
9222;SDS011;7557;51.698;3.942;2023-01-04T05:36:49;3.50;;;3.20;;
9222;SDS011;7557;51.698;3.942;2023-01-04T05:39:16;3.27;;;3.07;;
9222;SDS011;7557;51.698;3.942;2023-01-04T05:41:43;3.30;;;3.00;;
9222;SDS011;7557;51.698;3.942;2023-01-04T05:44:28;3.30;;;3.10;;
9222;SDS011;7557;51.698;3.942;2023-01-04T05:46:56;3.00;;;2.70;;
9222;SDS011;7557;51.698;3.942;2023-01-04T05:49:23;4.87;;;3.10;;
9222;SDS011;7557;51.698;3.942;2023-01-04T05:51:50;5.23;;;3.30;;
9222;SDS011;7557;51.698;3.942;2023-01-04T05:54:18;4.13;;;3.00;;
9222;SDS011;7557;51.698;3.942;2023-01-04T05:56:45;3.55;;;3.00;;
9222;SDS011;7557;51.698;3.942;2023-01-04T05:59:12;5.70;;;3.30;;
9222;SDS011;7557;51.698;3.942;2023-01-04T06:01:40;5.40;;;3.10;;
9222;SDS011;7557;51.698;3.942;2023-01-04T06:04:08;6.80;;;3.47;;
9222;SDS011;7557;51.698;3.942;2023-01-04T06:06:35;5.47;;;2.70;;
9222;SDS011;7557;51.698;3.942;2023-01-04T06:09:02;5.20;;;3.07;;
9222;SDS011;7557;51.698;3.942;2023-01-04T06:11:29;7.33;;;2.90;;
9222;SDS011;7557;51.698;3.942;2023-01-04T06:13:57;3.33;;;2.97;;
9222;SDS011;7557;51.698;3.942;2023-01-04T06:16:24;4.60;;;3.30;;
9222;SDS011;7557;51.698;3.942;2023-01-04T06:18:51;8.67;;;3.20;;
9222;SDS011;7557;51.698;3.942;2023-01-04T06:21:19;7.67;;;2.87;;
9222;SDS011;7557;51.698;3.942;2023-01-04T06:23:46;6.37;;;3.23;;
9222;SDS011;7557;51.698;3.942;2023-01-04T06:26:13;6.90;;;2.83;;
9222;SDS011;7557;51.698;3.942;2023-01-04T06:28:41;6.53;;;3.00;;
9222;SDS011;7557;51.698;3.942;2023-01-04T06:31:08;11.03;;;3.20;;
9222;SDS011;7557;51.698;3.942;2023-01-04T06:33:36;9.43;;;3.03;;
9222;SDS011;7557;51.698;3.942;2023-01-04T06:36:04;4.63;;;2.63;;
9222;SDS011;7557;51.698;3.942;2023-01-04T06:38:33;8.00;;;2.90;;
9222;SDS011;7557;51.698;3.942;2023-01-04T06:41:01;9.10;;;4.17;;
9222;SDS011;7557;51.698;3.942;2023-01-04T06:43:28;9.77;;;3.23;;
9222;SDS011;7557;51.698;3.942;2023-01-04T06:45:55;8.03;;;2.97;;
9222;SDS011;7557;51.698;3.942;2023-01-04T06:48:22;6.63;;;2.80;;
9222;SDS011;7557;51.698;3.942;2023-01-04T06:50:49;12.07;;;2.90;;
9222;SDS011;7557;51.698;3.942;2023-01-04T06:53:16;7.87;;;3.00;;
9222;SDS011;7557;51.698;3.942;2023-01-04T06:55:44;6.50;;;2.87;;
9222;SDS011;7557;51.698;3.942;2023-01-04T06:58:11;13.10;;;3.03;;
9222;SDS011;7557;51.698;3.942;2023-01-04T07:00:38;6.32;;;3.30;;
9222;SDS011;7557;51.698;3.942;2023-01-04T07:03:05;8.07;;;3.07;;
9222;SDS011;7557;51.698;3.942;2023-01-04T07:05:32;11.47;;;3.20;;
9222;SDS011;7557;51.698;3.942;2023-01-04T07:07:59;7.67;;;3.17;;
9222;SDS011;7557;51.698;3.942;2023-01-04T07:10:27;4.80;;;2.23;;
9222;SDS011;7557;51.698;3.942;2023-01-04T07:12:56;8.13;;;3.40;;
9222;SDS011;7557;51.698;3.942;2023-01-04T07:15:23;10.53;;;3.67;;
9222;SDS011;7557;51.698;3.942;2023-01-04T07:17:50;8.13;;;3.23;;
9222;SDS011;7557;51.698;3.942;2023-01-04T07:20:17;8.60;;;3.20;;
9222;SDS011;7557;51.698;3.942;2023-01-04T07:22:44;9.75;;;2.63;;
9222;SDS011;7557;51.698;3.942;2023-01-04T07:25:11;8.40;;;2.70;;
9222;SDS011;7557;51.698;3.942;2023-01-04T07:27:38;6.90;;;3.20;;
9222;SDS011;7557;51.698;3.942;2023-01-04T07:30:07;10.63;;;3.83;;
9222;SDS011;7557;51.698;3.942;2023-01-04T07:32:35;11.40;;;4.80;;
9222;SDS011;7557;51.698;3.942;2023-01-04T07:35:02;8.60;;;3.20;;
9222;SDS011;7557;51.698;3.942;2023-01-04T07:37:30;12.17;;;3.87;;
9222;SDS011;7557;51.698;3.942;2023-01-04T07:39:57;8.53;;;3.27;;
9222;SDS011;7557;51.698;3.942;2023-01-04T07:42:24;6.20;;;3.90;;
9222;SDS011;7557;51.698;3.942;2023-01-04T07:44:51;10.97;;;4.20;;
9222;SDS011;7557;51.698;3.942;2023-01-04T07:47:20;12.77;;;4.70;;
9222;SDS011;7557;51.698;3.942;2023-01-04T07:49:47;7.93;;;3.70;;
9222;SDS011;7557;51.698;3.942;2023-01-04T07:52:14;16.33;;;4.63;;
9222;SDS011;7557;51.698;3.942;2023-01-04T07:54:41;10.10;;;4.17;;
9222;SDS011;7557;51.698;3.942;2023-01-04T07:57:08;14.50;;;4.27;;
9222;SDS011;7557;51.698;3.942;2023-01-04T07:59:35;12.17;;;4.47;;
9222;SDS011;7557;51.698;3.942;2023-01-04T08:02:02;10.23;;;4.60;;
9222;SDS011;7557;51.698;3.942;2023-01-04T08:04:31;13.27;;;4.80;;
9222;SDS011;7557;51.698;3.942;2023-01-04T08:06:58;13.70;;;4.97;;
9222;SDS011;7557;51.698;3.942;2023-01-04T08:09:25;16.87;;;4.03;;
9222;SDS011;7557;51.698;3.942;2023-01-04T08:11:52;11.57;;;4.20;;
9222;SDS011;7557;51.698;3.942;2023-01-04T08:14:19;22.87;;;4.37;;
9222;SDS011;7557;51.698;3.942;2023-01-04T08:16:47;15.87;;;5.43;;
9222;SDS011;7557;51.698;3.942;2023-01-04T08:19:15;16.10;;;4.33;;
9222;SDS011;7557;51.698;3.942;2023-01-04T08:21:46;19.57;;;4.70;;
9222;SDS011;7557;51.698;3.942;2023-01-04T08:24:14;12.10;;;4.00;;
9222;SDS011;7557;51.698;3.942;2023-01-04T08:26:42;15.93;;;4.10;;
9222;SDS011;7557;51.698;3.942;2023-01-04T08:29:09;16.90;;;4.33;;
9222;SDS011;7557;51.698;3.942;2023-01-04T08:31:37;12.37;;;4.03;;
9222;SDS011;7557;51.698;3.942;2023-01-04T08:34:06;11.43;;;4.17;;
9222;SDS011;7557;51.698;3.942;2023-01-04T08:36:35;18.10;;;4.27;;
9222;SDS011;7557;51.698;3.942;2023-01-04T08:39:10;18.93;;;4.03;;
9222;SDS011;7557;51.698;3.942;2023-01-04T08:41:37;16.10;;;5.00;;
9222;SDS011;7557;51.698;3.942;2023-01-04T08:44:16;16.43;;;4.80;;
9222;SDS011;7557;51.698;3.942;2023-01-04T08:46:43;16.33;;;3.90;;
9222;SDS011;7557;51.698;3.942;2023-01-04T08:49:10;10.87;;;3.63;;
9222;SDS011;7557;51.698;3.942;2023-01-04T08:51:38;13.57;;;4.00;;
9222;SDS011;7557;51.698;3.942;2023-01-04T08:54:05;11.47;;;4.00;;
9222;SDS011;7557;51.698;3.942;2023-01-04T08:56:33;11.50;;;3.60;;
9222;SDS011;7557;51.698;3.942;2023-01-04T08:59:00;10.47;;;3.37;;
9222;SDS011;7557;51.698;3.942;2023-01-04T09:01:27;11.63;;;3.73;;
9222;SDS011;7557;51.698;3.942;2023-01-04T09:03:56;18.13;;;4.53;;
9222;SDS011;7557;51.698;3.942;2023-01-04T09:06:23;14.07;;;4.00;;
9222;SDS011;7557;51.698;3.942;2023-01-04T09:08:50;14.30;;;4.83;;
9222;SDS011;7557;51.698;3.942;2023-01-04T09:11:18;13.30;;;3.77;;
9222;SDS011;7557;51.698;3.942;2023-01-04T09:13:52;13.23;;;3.77;;
9222;SDS011;7557;51.698;3.942;2023-01-04T09:16:21;20.00;;;5.07;;
9222;SDS011;7557;51.698;3.942;2023-01-04T09:18:48;25.50;;;4.67;;
9222;SDS011;7557;51.698;3.942;2023-01-04T09:21:16;11.77;;;3.33;;
9222;SDS011;7557;51.698;3.942;2023-01-04T09:23:45;21.03;;;4.47;;
9222;SDS011;7557;51.698;3.942;2023-01-04T09:26:14;16.57;;;3.83;;
9222;SDS011;7557;51.698;3.942;2023-01-04T09:28:42;16.17;;;4.43;;
9222;SDS011;7557;51.698;3.942;2023-01-04T09:31:11;15.77;;;3.60;;
9222;SDS011;7557;51.698;3.942;2023-01-04T09:33:40;16.77;;;3.30;;
9222;SDS011;7557;51.698;3.942;2023-01-04T09:36:07;11.87;;;3.97;;
9222;SDS011;7557;51.698;3.942;2023-01-04T09:38:37;12.03;;;3.93;;
9222;SDS011;7557;51.698;3.942;2023-01-04T09:41:07;12.33;;;3.63;;
9222;SDS011;7557;51.698;3.942;2023-01-04T09:43:42;9.83;;;3.77;;
9222;SDS011;7557;51.698;3.942;2023-01-04T09:46:16;12.73;;;3.00;;
9222;SDS011;7557;51.698;3.942;2023-01-04T09:48:52;11.90;;;4.07;;
9222;SDS011;7557;51.698;3.942;2023-01-04T09:51:30;9.20;;;2.67;;
9222;SDS011;7557;51.698;3.942;2023-01-04T09:54:01;8.40;;;3.00;;
9222;SDS011;7557;51.698;3.942;2023-01-04T09:56:32;7.43;;;2.37;;
9222;SDS011;7557;51.698;3.942;2023-01-04T09:59:03;9.30;;;3.00;;
9222;SDS011;7557;51.698;3.942;2023-01-04T10:01:40;9.37;;;2.53;;
9222;SDS011;7557;51.698;3.942;2023-01-04T10:04:12;10.20;;;3.03;;
9222;SDS011;7557;51.698;3.942;2023-01-04T10:06:44;7.73;;;2.73;;
9222;SDS011;7557;51.698;3.942;2023-01-04T10:09:12;6.25;;;2.00;;
9222;SDS011;7557;51.698;3.942;2023-01-04T10:11:54;6.70;;;2.57;;
9222;SDS011;7557;51.698;3.942;2023-01-04T10:14:35;8.02;;;2.60;;
9222;SDS011;7557;51.698;3.942;2023-01-04T10:20:00;10.80;;;2.77;;
9222;SDS011;7557;51.698;3.942;2023-01-04T10:22:35;4.37;;;2.20;;
9222;SDS011;7557;51.698;3.942;2023-01-04T10:25:20;5.53;;;3.03;;
9222;SDS011;7557;51.698;3.942;2023-01-04T10:27:58;5.37;;;2.10;;
9222;SDS011;7557;51.698;3.942;2023-01-04T10:30:37;7.60;;;3.38;;
9222;SDS011;7557;51.698;3.942;2023-01-04T10:33:14;4.05;;;2.90;;
9222;SDS011;7557;51.698;3.942;2023-01-04T10:35:46;3.55;;;2.10;;
9222;SDS011;7557;51.698;3.942;2023-01-04T10:38:16;3.38;;;2.00;;
9222;SDS011;7557;51.698;3.942;2023-01-04T10:40:46;4.33;;;2.30;;
9222;SDS011;7557;51.698;3.942;2023-01-04T10:43:16;2.90;;;1.70;;
9222;SDS011;7557;51.698;3.942;2023-01-04T10:45:52;9.40;;;3.03;;
9222;SDS011;7557;51.698;3.942;2023-01-04T10:48:29;5.60;;;2.28;;
9222;SDS011;7557;51.698;3.942;2023-01-04T10:51:03;10.93;;;2.97;;
9222;SDS011;7557;51.698;3.942;2023-01-04T10:53:32;5.15;;;2.22;;
9222;SDS011;7557;51.698;3.942;2023-01-04T10:56:06;5.57;;;2.40;;
9222;SDS011;7557;51.698;3.942;2023-01-04T10:58:38;4.75;;;2.03;;
9222;SDS011;7557;51.698;3.942;2023-01-04T11:01:13;7.30;;;2.53;;
9222;SDS011;7557;51.698;3.942;2023-01-04T11:03:47;4.97;;;2.33;;
9222;SDS011;7557;51.698;3.942;2023-01-04T11:06:19;7.80;;;2.67;;
9222;SDS011;7557;51.698;3.942;2023-01-04T11:08:49;11.50;;;2.78;;
9222;SDS011;7557;51.698;3.942;2023-01-04T11:11:23;8.13;;;2.90;;
9222;SDS011;7557;51.698;3.942;2023-01-04T11:13:52;11.30;;;2.90;;
9222;SDS011;7557;51.698;3.942;2023-01-04T11:16:20;7.73;;;2.93;;
9222;SDS011;7557;51.698;3.942;2023-01-04T11:18:48;9.67;;;3.70;;
9222;SDS011;7557;51.698;3.942;2023-01-04T11:21:17;10.77;;;2.90;;
9222;SDS011;7557;51.698;3.942;2023-01-04T11:23:48;10.90;;;3.90;;
9222;SDS011;7557;51.698;3.942;2023-01-04T11:26:17;17.65;;;3.53;;
9222;SDS011;7557;51.698;3.942;2023-01-04T11:28:46;10.00;;;3.58;;
9222;SDS011;7557;51.698;3.942;2023-01-04T11:31:20;18.20;;;4.30;;
9222;SDS011;7557;51.698;3.942;2023-01-04T11:33:54;10.77;;;3.23;;
9222;SDS011;7557;51.698;3.942;2023-01-04T11:36:33;16.13;;;3.37;;
9222;SDS011;7557;51.698;3.942;2023-01-04T11:39:03;13.17;;;3.33;;
9222;SDS011;7557;51.698;3.942;2023-01-04T11:41:31;13.13;;;3.63;;
9222;SDS011;7557;51.698;3.942;2023-01-04T11:43:59;12.93;;;3.80;;
9222;SDS011;7557;51.698;3.942;2023-01-04T11:46:27;15.00;;;4.20;;
9222;SDS011;7557;51.698;3.942;2023-01-04T11:48:57;11.00;;;3.47;;
9222;SDS011;7557;51.698;3.942;2023-01-04T11:51:34;9.63;;;3.63;;
9222;SDS011;7557;51.698;3.942;2023-01-04T11:54:05;11.83;;;3.33;;
9222;SDS011;7557;51.698;3.942;2023-01-04T11:56:58;7.40;;;2.70;;
9222;SDS011;7557;51.698;3.942;2023-01-04T11:59:26;15.07;;;3.43;;
9222;SDS011;7557;51.698;3.942;2023-01-04T12:04:38;11.50;;;3.93;;
9222;SDS011;7557;51.698;3.942;2023-01-04T12:07:05;13.67;;;3.70;;
9222;SDS011;7557;51.698;3.942;2023-01-04T12:09:41;15.97;;;4.03;;
9222;SDS011;7557;51.698;3.942;2023-01-04T12:12:09;14.50;;;4.15;;
9222;SDS011;7557;51.698;3.942;2023-01-04T12:14:39;11.40;;;3.78;;
9222;SDS011;7557;51.698;3.942;2023-01-04T12:17:12;14.50;;;3.77;;
9222;SDS011;7557;51.698;3.942;2023-01-04T12:19:46;13.15;;;3.80;;
9222;SDS011;7557;51.698;3.942;2023-01-04T12:22:16;14.47;;;4.13;;
9222;SDS011;7557;51.698;3.942;2023-01-04T12:24:47;19.50;;;4.60;;
9222;SDS011;7557;51.698;3.942;2023-01-04T12:27:15;14.03;;;3.60;;
9222;SDS011;7557;51.698;3.942;2023-01-04T12:29:53;13.27;;;3.90;;
9222;SDS011;7557;51.698;3.942;2023-01-04T12:32:41;13.03;;;3.80;;
9222;SDS011;7557;51.698;3.942;2023-01-04T12:44:57;13.33;;;4.30;;
9222;SDS011;7557;51.698;3.942;2023-01-04T12:47:45;13.37;;;4.50;;
9222;SDS011;7557;51.698;3.942;2023-01-04T12:53:49;15.07;;;3.30;;
9222;SDS011;7557;51.698;3.942;2023-01-04T12:59:32;18.97;;;4.10;;
9222;SDS011;7557;51.698;3.942;2023-01-04T13:02:20;13.43;;;4.33;;
9222;SDS011;7557;51.698;3.942;2023-01-04T13:04:48;14.43;;;3.50;;
9222;SDS011;7557;51.698;3.942;2023-01-04T13:07:18;15.63;;;4.00;;
9222;SDS011;7557;51.698;3.942;2023-01-04T13:09:51;16.42;;;4.35;;
9222;SDS011;7557;51.698;3.942;2023-01-04T13:15:31;21.37;;;4.10;;
9222;SDS011;7557;51.698;3.942;2023-01-04T13:18:15;9.67;;;3.57;;
9222;SDS011;7557;51.698;3.942;2023-01-04T13:21:01;17.87;;;4.37;;
9222;SDS011;7557;51.698;3.942;2023-01-04T13:23:34;9.73;;;3.63;;
9222;SDS011;7557;51.698;3.942;2023-01-04T13:29:11;17.40;;;3.77;;
9222;SDS011;7557;51.698;3.942;2023-01-04T13:31:44;15.03;;;4.50;;
9222;SDS011;7557;51.698;3.942;2023-01-04T13:34:23;18.13;;;4.00;;
9222;SDS011;7557;51.698;3.942;2023-01-04T13:37:05;18.43;;;4.63;;
9222;SDS011;7557;51.698;3.942;2023-01-04T13:39:39;20.53;;;5.00;;
9222;SDS011;7557;51.698;3.942;2023-01-04T13:42:11;27.87;;;5.10;;
9222;SDS011;7557;51.698;3.942;2023-01-04T13:44:50;18.77;;;5.17;;
9222;SDS011;7557;51.698;3.942;2023-01-04T13:47:40;19.47;;;5.50;;
9222;SDS011;7557;51.698;3.942;2023-01-04T13:50:16;23.30;;;6.83;;
9222;SDS011;7557;51.698;3.942;2023-01-04T13:52:52;27.43;;;6.67;;
9222;SDS011;7557;51.698;3.942;2023-01-04T13:55:20;17.93;;;5.90;;
9222;SDS011;7557;51.698;3.942;2023-01-04T13:57:51;25.50;;;7.00;;
9222;SDS011;7557;51.698;3.942;2023-01-04T14:00:19;28.70;;;6.23;;
9222;SDS011;7557;51.698;3.942;2023-01-04T14:02:49;23.53;;;7.37;;
9222;SDS011;7557;51.698;3.942;2023-01-04T14:05:33;27.93;;;6.83;;
9222;SDS011;7557;51.698;3.942;2023-01-04T14:08:01;24.20;;;7.73;;
9222;SDS011;7557;51.698;3.942;2023-01-04T14:10:28;24.60;;;6.50;;
9222;SDS011;7557;51.698;3.942;2023-01-04T14:12:55;33.83;;;7.43;;
9222;SDS011;7557;51.698;3.942;2023-01-04T14:15:23;30.87;;;7.47;;
9222;SDS011;7557;51.698;3.942;2023-01-04T14:17:53;39.83;;;7.03;;
9222;SDS011;7557;51.698;3.942;2023-01-04T14:20:31;30.83;;;8.10;;
9222;SDS011;7557;51.698;3.942;2023-01-04T14:22:59;30.90;;;7.43;;
9222;SDS011;7557;51.698;3.942;2023-01-04T14:28:24;36.53;;;8.13;;
9222;SDS011;7557;51.698;3.942;2023-01-04T14:30:54;23.80;;;7.05;;
9222;SDS011;7557;51.698;3.942;2023-01-04T14:33:40;31.57;;;8.13;;
9222;SDS011;7557;51.698;3.942;2023-01-04T14:36:10;29.20;;;8.43;;
9222;SDS011;7557;51.698;3.942;2023-01-04T14:38:40;20.90;;;6.83;;
9222;SDS011;7557;51.698;3.942;2023-01-04T14:41:10;39.50;;;8.60;;
9222;SDS011;7557;51.698;3.942;2023-01-04T14:43:44;27.13;;;8.07;;
9222;SDS011;7557;51.698;3.942;2023-01-04T14:46:13;25.67;;;6.57;;
9222;SDS011;7557;51.698;3.942;2023-01-04T14:48:43;24.85;;;6.90;;
9222;SDS011;7557;51.698;3.942;2023-01-04T14:51:10;30.17;;;7.43;;
9222;SDS011;7557;51.698;3.942;2023-01-04T14:53:40;27.80;;;7.10;;
9222;SDS011;7557;51.698;3.942;2023-01-04T14:56:08;31.10;;;7.17;;
9222;SDS011;7557;51.698;3.942;2023-01-04T14:58:39;30.40;;;7.10;;
9222;SDS011;7557;51.698;3.942;2023-01-04T15:01:07;28.10;;;7.47;;
9222;SDS011;7557;51.698;3.942;2023-01-04T15:03:35;27.70;;;7.23;;
9222;SDS011;7557;51.698;3.942;2023-01-04T15:06:04;30.47;;;6.03;;
9222;SDS011;7557;51.698;3.942;2023-01-04T15:08:32;25.13;;;5.97;;
9222;SDS011;7557;51.698;3.942;2023-01-04T15:10:59;28.30;;;6.33;;
9222;SDS011;7557;51.698;3.942;2023-01-04T15:13:26;35.97;;;5.90;;
9222;SDS011;7557;51.698;3.942;2023-01-04T15:15:54;26.53;;;7.70;;
9222;SDS011;7557;51.698;3.942;2023-01-04T15:18:22;26.30;;;6.50;;
9222;SDS011;7557;51.698;3.942;2023-01-04T15:20:49;25.90;;;6.23;;
9222;SDS011;7557;51.698;3.942;2023-01-04T15:23:17;23.63;;;6.63;;
9222;SDS011;7557;51.698;3.942;2023-01-04T15:25:44;24.47;;;6.37;;
9222;SDS011;7557;51.698;3.942;2023-01-04T15:28:12;25.97;;;6.23;;
9222;SDS011;7557;51.698;3.942;2023-01-04T15:30:40;28.10;;;5.97;;
9222;SDS011;7557;51.698;3.942;2023-01-04T15:33:08;27.17;;;6.67;;
9222;SDS011;7557;51.698;3.942;2023-01-04T15:35:36;28.23;;;7.67;;
9222;SDS011;7557;51.698;3.942;2023-01-04T15:38:03;31.37;;;6.97;;
9222;SDS011;7557;51.698;3.942;2023-01-04T15:40:32;25.83;;;5.87;;
9222;SDS011;7557;51.698;3.942;2023-01-04T15:43:00;31.60;;;7.60;;
9222;SDS011;7557;51.698;3.942;2023-01-04T15:45:26;25.13;;;6.50;;
9222;SDS011;7557;51.698;3.942;2023-01-04T15:48:01;40.87;;;8.60;;
9222;SDS011;7557;51.698;3.942;2023-01-04T15:50:29;30.13;;;7.17;;
9222;SDS011;7557;51.698;3.942;2023-01-04T15:52:57;26.43;;;7.23;;
9222;SDS011;7557;51.698;3.942;2023-01-04T15:55:24;31.43;;;7.73;;
9222;SDS011;7557;51.698;3.942;2023-01-04T15:57:53;38.97;;;10.03;;
9222;SDS011;7557;51.698;3.942;2023-01-04T16:00:20;35.80;;;7.57;;
9222;SDS011;7557;51.698;3.942;2023-01-04T16:02:47;44.40;;;8.50;;
9222;SDS011;7557;51.698;3.942;2023-01-04T16:05:15;37.03;;;7.80;;
9222;SDS011;7557;51.698;3.942;2023-01-04T16:07:45;44.93;;;8.67;;
9222;SDS011;7557;51.698;3.942;2023-01-04T16:10:13;40.33;;;9.40;;
9222;SDS011;7557;51.698;3.942;2023-01-04T16:12:40;33.03;;;8.97;;